Pagina principale
METAR-TAF:

METAR-TAF

Aeroporti :

Istres, Francia

latitudine: 43-31N, longitudine: 004-56E, altezza: 23 m

Osservazione

Il bollettino è stato emesso 27 minuti fa, alle 15:30 UTC
Vento 13 kt da sud
Temperature 29°C
Umidità 40%
Pressione 1016 hPa
Visibilità 10 km o più
nessuna nube inferiore a 1500 m e nessun cumulonembo

METAR: LFMI 241530Z AUTO 17013KT CAVOK 29/14 Q1016 NOSIG

Ora: 17:57 (15:57 UTC)

Previsione

Il bollettino è stato emesso 1 ora e 57 minuti fa, alle 14:00 UTC
Previsione valida dal 24 alle 15 UTC al 25 alle 15 UTC
Vento 15 kt da sud
Visibilità 10 km o più
nessuna nube inferiore a 1500 m e nessun cumulonembo
Evoluzione graduale
dal 24 alle 18 UTC al 24 alle 19 UTC
Vento 5 kt da direzioni variabili
Evoluzione graduale
dal 25 alle 09 UTC al 25 alle 10 UTC
Vento 20 kt da sud/sud-est con raffiche fino a 30 kt

TAF: LFMI 241400Z 2415/2515 17015KT CAVOK BECMG 2418/2419 VRB05KT BECMG 2509/2510 15020G30KT

Osservazioni e previsioni meteorologiche di più di 4000 aeroporti (messaggi METAR e TAF).

Le stazioni disponibili sono rappresentate dai dischi gialli e rossi sulla carta.

Puntare il mouse per vedere il nome della stazione.

Clicca sopra per visualizzare le osservazioni e previsioni meteorologiche.

Per cambiare la mappa : fare clic sui pulsanti verdi con una croce nera per ingrandire, il pulsante verde con un trattino per diminuire, o sulla freccia verde per le mappe adiacenti.


METAR-TAF: